Flight Track Log - Related Links

Times and Time Zones

All times are in EDT time to prevent confusion due to time zone crossing. See the N1244V flight status page for this flight to view local times or setup timezone preferences in your user account.


Time Position Orientation Groundspeed Altitude Reporting Facility
EDT Latitude Longitude Course Direction KTS MPH feet Rate Location/Type
Mon 03:17:55 PM 26.1850 -80.1628 88° East 71 82 300  Level Miami Center
Mon 03:18:50 PM 26.1856 -80.1397 79° East 86 99 700 517 Climbing Miami Center
Mon 03:19:51 PM 26.1906 -80.1097 81° East 96 110 1,300 563 Climbing Miami Center
Mon 03:20:58 PM 26.1953 -80.0775 81° East 109 125 1,900 492 Climbing Miami Center
Mon 03:21:53 PM 26.2003 -80.0428 85° East 112 129 2,300 569 Climbing Miami Center
Mon 03:22:54 PM 26.2031 -80.0106 82° East 117 135 3,000 627 Climbing Miami Center
Mon 03:24:07 PM 26.2081 -79.9689 83° East 108 124 3,700 569 Climbing Miami Center
Mon 03:24:50 PM 26.2108 -79.9436 89° East 107 123 4,100 466 Climbing Miami Center
Mon 03:26:03 PM 26.2114 -79.9067 88° East 102 117 4,600 439 Climbing Miami Center
Mon 03:26:53 PM 26.2122 -79.8742 84° East 112 129 5,000 436 Climbing Miami Center
Mon 03:27:53 PM 26.2150 -79.8442 89° East 129 148 5,400 500 Climbing Miami Center
Mon 03:28:53 PM 26.2158 -79.7956 85° East 129 148 6,000 600 Climbing Miami Center
Mon 03:29:53 PM 26.2189 -79.7539 85° East 129 148 6,600 550 Climbing Miami Center
Mon 03:30:53 PM 26.2217 -79.7169 92° East 129 148 7,100 450 Climbing Miami Center
Mon 03:31:53 PM 26.2203 -79.6728 82° East 124 143 7,500 450 Climbing Miami Center
Mon 03:32:53 PM 26.2253 -79.6336 89° East 124 143 8,000 500 Climbing Miami Center
Mon 03:33:53 PM 26.2261 -79.5942 89° East 124 143 8,500 500 Climbing Miami Center
Mon 03:34:53 PM 26.2267 -79.5572 121° Southeast 124 143 9,000 450 Climbing Miami Center
Mon 03:35:53 PM 26.2125 -79.5314 130° Southeast 113 130 9,400 400 Climbing Miami Center
Mon 03:36:53 PM 26.1881 -79.4986 124° Southeast 118 136 9,800 400 Climbing Miami Center
Mon 03:37:53 PM 26.1697 -79.4681 129° Southeast 123 142 10,200 450 Climbing Miami Center
Mon 03:38:53 PM 26.1475 -79.4375 124° Southeast 123 142 10,700 400 Climbing Miami Center
Mon 03:39:53 PM 26.1292 -79.4069 129° Southeast 123 142 11,000 150 Climbing Miami Center
Mon 03:40:53 PM 26.1047 -79.3739 126° Southeast 123 142 11,000  Level Miami Center
Mon 03:41:53 PM 26.0803 -79.3364 125° Southeast 141 162 11,000  Level Miami Center
Mon 03:42:53 PM 26.0539 -79.2944 127° Southeast 154 177 11,000  Level Miami Center
Mon 03:43:53 PM 26.0272 -79.2544 131° Southeast 166 191 11,000  Level Miami Center
Mon 03:44:53 PM 25.9944 -79.2122 125° Southeast 166 191 11,000  Level Miami Center
Mon 03:45:53 PM 25.9681 -79.1700 131° Southeast 166 191 11,000  Level Miami Center
Mon 03:46:53 PM 25.9372 -79.1303 117° Southeast 166 191 11,000  Level Miami Center
Mon 03:47:53 PM 25.9172 -79.0858 116° Southeast 166 191 11,000  Level Miami Center
Mon 03:48:53 PM 25.8969 -79.0394 126° Southeast 171 197 11,000  Level Miami Center
Mon 03:49:53 PM 25.8661 -78.9925 114° Southeast 171 197 11,000  Level Miami Center
Mon 03:50:53 PM 25.8481 -78.9483 124° Southeast 171 197 11,000  Level Miami Center
Mon 03:51:53 PM 25.8217 -78.9042 124° Southeast 171 197 11,000  Level Miami Center
Mon 03:52:53 PM 25.7950 -78.8597 117° Southeast 165 190 11,000  Level Miami Center
Mon 03:53:53 PM 25.7728 -78.8111 102° East 165 190 11,000  Level Miami Center
Mon 03:54:53 PM 25.7628 -78.7600 112° Southeast 165 190 11,000  Level Miami Center
Mon 03:55:53 PM 25.7447 -78.7114 108° East 165 190 11,000  Level Miami Center
Mon 03:56:53 PM 25.7306 -78.6628 114° Southeast 183 211 11,000  Level Miami Center
Mon 03:57:53 PM 25.7125 -78.6186 113° Southeast 167 192 11,000  Level Miami Center
Mon 03:58:53 PM 25.6942 -78.5700 112° Southeast 167 192 11,000  Level Miami Center
Mon 03:59:53 PM 25.6758 -78.5189 106° East 172 198 11,000  Level Miami Center
Mon 04:00:53 PM 25.6619 -78.4658 114° Southeast 172 198 11,000  Level Miami Center
Mon 04:01:53 PM 25.6436 -78.4194 122° Southeast 172 198 11,000  Level Miami Center
Mon 04:02:53 PM 25.6189 -78.3753 135° Southeast 166 191 11,000  Level Miami Center
Mon 04:03:53 PM 25.5858 -78.3381 146° Southeast 166 191 11,000 -300 Level Miami Center
Mon 04:04:53 PM 25.5444 -78.3075 119° Southeast 173 199 10,400 -500 Descending Miami Center
Mon 04:05:53 PM 25.5197 -78.2589 124° Southeast 173 199 10,000 -450 Descending Miami Center
Mon 04:06:53 PM 25.4911 -78.2125 125° Southeast 178 205 9,500 -500 Descending Miami Center
Mon 04:07:53 PM 25.4622 -78.1661 125° Southeast 178 205 9,000 -250 Descending Miami Center
Mon 04:08:53 PM 25.4333 -78.1197 123° Southeast 183 211 9,000 -50 Level Miami Center
Mon 04:09:53 PM 25.4086 -78.0781 123° Southeast 173 199 8,900  Descending Miami Center
Mon 04:10:53 PM 25.3839 -78.0364 126° Southeast 173 199 9,000 100 Climbing Miami Center
Mon 04:18:32 PM 25.1889 -77.7446 123° Southeast  Level FlightAware Approximate
Mon 04:19:32 PM 25.1658 -77.7046 119° Southeast  Level FlightAware Approximate
Mon 04:20:32 PM 25.1453 -77.6643 124° Southeast  Level FlightAware Approximate
Mon 04:21:32 PM 25.1216 -77.6248 124° Southeast  Level FlightAware Approximate
Mon 04:22:32 PM 25.0978 -77.5853 124° Southeast  Level FlightAware Approximate

Login

Don't have an account? Register now (free) for customized features, flight alerts, and more!